sensor_id;sensor_type;location;lat;lon;timestamp;P1;durP1;ratioP1;P2;durP2;ratioP2
64029;SDS011;50277;52.064;4.492;2024-02-15T00:02:08;16.98;;;4.53;;
64029;SDS011;50277;52.064;4.492;2024-02-15T00:04:33;12.30;;;4.47;;
64029;SDS011;50277;52.064;4.492;2024-02-15T00:06:59;13.43;;;4.18;;
64029;SDS011;50277;52.064;4.492;2024-02-15T00:09:25;8.52;;;3.28;;
64029;SDS011;50277;52.064;4.492;2024-02-15T00:11:50;11.45;;;3.85;;
64029;SDS011;50277;52.064;4.492;2024-02-15T00:14:16;14.15;;;4.63;;
64029;SDS011;50277;52.064;4.492;2024-02-15T00:16:42;11.85;;;4.40;;
64029;SDS011;50277;52.064;4.492;2024-02-15T00:19:07;12.52;;;4.18;;
64029;SDS011;50277;52.064;4.492;2024-02-15T00:21:32;22.77;;;5.43;;
64029;SDS011;50277;52.064;4.492;2024-02-15T00:23:58;10.77;;;4.30;;
64029;SDS011;50277;52.064;4.492;2024-02-15T00:26:25;13.52;;;4.07;;
64029;SDS011;50277;52.064;4.492;2024-02-15T00:28:50;11.55;;;5.15;;
64029;SDS011;50277;52.064;4.492;2024-02-15T00:31:16;16.60;;;5.65;;
64029;SDS011;50277;52.064;4.492;2024-02-15T00:33:42;14.00;;;5.72;;
64029;SDS011;50277;52.064;4.492;2024-02-15T00:36:07;11.95;;;5.55;;
64029;SDS011;50277;52.064;4.492;2024-02-15T00:38:33;19.50;;;6.07;;
64029;SDS011;50277;52.064;4.492;2024-02-15T00:40:58;16.08;;;5.72;;
64029;SDS011;50277;52.064;4.492;2024-02-15T00:43:24;14.73;;;5.85;;
64029;SDS011;50277;52.064;4.492;2024-02-15T00:45:51;14.27;;;6.05;;
64029;SDS011;50277;52.064;4.492;2024-02-15T00:48:16;12.82;;;4.97;;
64029;SDS011;50277;52.064;4.492;2024-02-15T00:50:42;11.80;;;4.90;;
64029;SDS011;50277;52.064;4.492;2024-02-15T00:53:07;22.63;;;5.28;;
64029;SDS011;50277;52.064;4.492;2024-02-15T00:55:32;13.30;;;4.60;;
64029;SDS011;50277;52.064;4.492;2024-02-15T00:57:58;12.35;;;5.05;;
64029;SDS011;50277;52.064;4.492;2024-02-15T01:00:23;10.65;;;4.82;;
64029;SDS011;50277;52.064;4.492;2024-02-15T01:02:48;14.18;;;5.35;;
64029;SDS011;50277;52.064;4.492;2024-02-15T01:05:14;12.90;;;5.97;;
64029;SDS011;50277;52.064;4.492;2024-02-15T01:07:43;17.02;;;6.53;;
64029;SDS011;50277;52.064;4.492;2024-02-15T01:10:09;16.45;;;6.18;;
64029;SDS011;50277;52.064;4.492;2024-02-15T01:12:34;16.30;;;5.90;;
64029;SDS011;50277;52.064;4.492;2024-02-15T01:14:59;9.82;;;6.85;;
64029;SDS011;50277;52.064;4.492;2024-02-15T01:17:25;15.25;;;5.80;;
64029;SDS011;50277;52.064;4.492;2024-02-15T01:19:50;13.20;;;6.60;;
64029;SDS011;50277;52.064;4.492;2024-02-15T01:22:17;11.13;;;5.75;;
64029;SDS011;50277;52.064;4.492;2024-02-15T01:24:42;15.18;;;6.70;;
64029;SDS011;50277;52.064;4.492;2024-02-15T01:27:08;13.57;;;6.32;;
64029;SDS011;50277;52.064;4.492;2024-02-15T01:29:35;14.98;;;6.55;;
64029;SDS011;50277;52.064;4.492;2024-02-15T01:32:00;13.38;;;6.47;;
64029;SDS011;50277;52.064;4.492;2024-02-15T01:34:27;16.70;;;6.80;;
64029;SDS011;50277;52.064;4.492;2024-02-15T01:36:52;14.20;;;6.57;;
64029;SDS011;50277;52.064;4.492;2024-02-15T01:39:18;26.85;;;6.78;;
64029;SDS011;50277;52.064;4.492;2024-02-15T01:41:48;12.23;;;7.18;;
64029;SDS011;50277;52.064;4.492;2024-02-15T01:44:16;13.77;;;6.90;;
64029;SDS011;50277;52.064;4.492;2024-02-15T01:46:43;12.98;;;6.30;;
64029;SDS011;50277;52.064;4.492;2024-02-15T01:49:08;11.75;;;6.57;;
64029;SDS011;50277;52.064;4.492;2024-02-15T01:51:34;11.95;;;6.10;;
64029;SDS011;50277;52.064;4.492;2024-02-15T01:54:02;13.85;;;6.75;;
64029;SDS011;50277;52.064;4.492;2024-02-15T01:56:27;16.23;;;6.32;;
64029;SDS011;50277;52.064;4.492;2024-02-15T01:58:53;12.80;;;6.10;;
64029;SDS011;50277;52.064;4.492;2024-02-15T02:01:18;13.65;;;6.00;;
64029;SDS011;50277;52.064;4.492;2024-02-15T02:03:43;10.15;;;5.57;;
64029;SDS011;50277;52.064;4.492;2024-02-15T02:06:09;16.98;;;5.90;;
64029;SDS011;50277;52.064;4.492;2024-02-15T02:08:35;10.23;;;5.55;;
64029;SDS011;50277;52.064;4.492;2024-02-15T02:11:00;13.02;;;5.78;;
64029;SDS011;50277;52.064;4.492;2024-02-15T02:13:26;11.32;;;5.85;;
64029;SDS011;50277;52.064;4.492;2024-02-15T02:15:52;16.77;;;6.13;;
64029;SDS011;50277;52.064;4.492;2024-02-15T02:18:17;9.40;;;5.78;;
64029;SDS011;50277;52.064;4.492;2024-02-15T02:20:43;13.10;;;5.68;;
64029;SDS011;50277;52.064;4.492;2024-02-15T02:23:14;14.48;;;5.45;;
64029;SDS011;50277;52.064;4.492;2024-02-15T02:25:41;9.70;;;4.78;;
64029;SDS011;50277;52.064;4.492;2024-02-15T02:28:09;12.35;;;5.10;;
64029;SDS011;50277;52.064;4.492;2024-02-15T02:30:35;10.80;;;4.43;;
64029;SDS011;50277;52.064;4.492;2024-02-15T02:33:00;16.13;;;5.20;;
64029;SDS011;50277;52.064;4.492;2024-02-15T02:35:26;13.13;;;5.03;;
64029;SDS011;50277;52.064;4.492;2024-02-15T02:37:55;7.25;;;4.43;;
64029;SDS011;50277;52.064;4.492;2024-02-15T02:40:21;11.23;;;4.18;;
64029;SDS011;50277;52.064;4.492;2024-02-15T02:42:50;14.05;;;5.03;;
64029;SDS011;50277;52.064;4.492;2024-02-15T02:45:16;11.43;;;4.20;;
64029;SDS011;50277;52.064;4.492;2024-02-15T02:47:41;14.10;;;4.72;;
64029;SDS011;50277;52.064;4.492;2024-02-15T02:50:07;11.70;;;4.53;;
64029;SDS011;50277;52.064;4.492;2024-02-15T02:52:33;10.38;;;4.00;;
64029;SDS011;50277;52.064;4.492;2024-02-15T02:54:58;14.55;;;4.90;;
64029;SDS011;50277;52.064;4.492;2024-02-15T02:57:24;9.55;;;4.53;;
64029;SDS011;50277;52.064;4.492;2024-02-15T02:59:49;10.15;;;4.15;;
64029;SDS011;50277;52.064;4.492;2024-02-15T03:02:15;12.75;;;4.35;;
64029;SDS011;50277;52.064;4.492;2024-02-15T03:04:40;9.18;;;4.07;;
64029;SDS011;50277;52.064;4.492;2024-02-15T03:07:05;13.75;;;4.68;;
64029;SDS011;50277;52.064;4.492;2024-02-15T03:09:31;12.05;;;4.75;;
64029;SDS011;50277;52.064;4.492;2024-02-15T03:11:56;11.00;;;4.68;;
64029;SDS011;50277;52.064;4.492;2024-02-15T03:14:22;23.40;;;4.70;;
64029;SDS011;50277;52.064;4.492;2024-02-15T03:16:47;17.27;;;5.10;;
64029;SDS011;50277;52.064;4.492;2024-02-15T03:19:13;12.98;;;4.78;;
64029;SDS011;50277;52.064;4.492;2024-02-15T03:21:38;11.93;;;4.25;;
64029;SDS011;50277;52.064;4.492;2024-02-15T03:24:03;13.77;;;4.95;;
64029;SDS011;50277;52.064;4.492;2024-02-15T03:26:29;14.60;;;4.90;;
64029;SDS011;50277;52.064;4.492;2024-02-15T03:28:58;8.23;;;4.10;;
64029;SDS011;50277;52.064;4.492;2024-02-15T03:31:24;13.25;;;4.45;;
64029;SDS011;50277;52.064;4.492;2024-02-15T03:33:49;13.25;;;5.88;;
64029;SDS011;50277;52.064;4.492;2024-02-15T03:36:15;14.45;;;5.28;;
64029;SDS011;50277;52.064;4.492;2024-02-15T03:41:09;14.00;;;4.82;;
64029;SDS011;50277;52.064;4.492;2024-02-15T03:43:35;14.20;;;5.20;;
64029;SDS011;50277;52.064;4.492;2024-02-15T03:46:00;10.13;;;4.95;;
64029;SDS011;50277;52.064;4.492;2024-02-15T03:48:25;18.70;;;6.22;;
64029;SDS011;50277;52.064;4.492;2024-02-15T03:50:51;18.98;;;5.85;;
64029;SDS011;50277;52.064;4.492;2024-02-15T03:53:16;9.40;;;5.85;;
64029;SDS011;50277;52.064;4.492;2024-02-15T03:55:41;8.88;;;5.55;;
64029;SDS011;50277;52.064;4.492;2024-02-15T03:58:07;11.65;;;6.28;;
64029;SDS011;50277;52.064;4.492;2024-02-15T04:00:33;11.23;;;6.38;;
64029;SDS011;50277;52.064;4.492;2024-02-15T04:02:59;12.38;;;7.50;;
64029;SDS011;50277;52.064;4.492;2024-02-15T04:05:25;15.85;;;8.68;;
64029;SDS011;50277;52.064;4.492;2024-02-15T04:07:51;14.35;;;7.70;;
64029;SDS011;50277;52.064;4.492;2024-02-15T04:10:18;16.92;;;7.70;;
64029;SDS011;50277;52.064;4.492;2024-02-15T04:12:44;13.27;;;7.80;;
64029;SDS011;50277;52.064;4.492;2024-02-15T04:15:09;11.95;;;6.60;;
64029;SDS011;50277;52.064;4.492;2024-02-15T04:17:39;14.90;;;7.53;;
64029;SDS011;50277;52.064;4.492;2024-02-15T04:20:05;10.75;;;6.88;;
64029;SDS011;50277;52.064;4.492;2024-02-15T04:22:32;9.43;;;6.97;;
64029;SDS011;50277;52.064;4.492;2024-02-15T04:25:01;10.77;;;7.30;;
64029;SDS011;50277;52.064;4.492;2024-02-15T04:27:31;9.30;;;6.72;;
64029;SDS011;50277;52.064;4.492;2024-02-15T04:29:57;10.93;;;7.07;;
64029;SDS011;50277;52.064;4.492;2024-02-15T04:32:22;14.10;;;7.60;;
64029;SDS011;50277;52.064;4.492;2024-02-15T04:34:47;11.27;;;6.63;;
64029;SDS011;50277;52.064;4.492;2024-02-15T04:37:13;11.35;;;7.72;;
64029;SDS011;50277;52.064;4.492;2024-02-15T04:39:39;10.00;;;7.10;;
64029;SDS011;50277;52.064;4.492;2024-02-15T04:42:05;9.80;;;7.10;;
64029;SDS011;50277;52.064;4.492;2024-02-15T04:44:32;9.80;;;7.27;;
64029;SDS011;50277;52.064;4.492;2024-02-15T04:47:00;16.65;;;8.02;;
64029;SDS011;50277;52.064;4.492;2024-02-15T04:49:25;11.57;;;7.97;;
64029;SDS011;50277;52.064;4.492;2024-02-15T04:51:54;13.60;;;7.88;;
64029;SDS011;50277;52.064;4.492;2024-02-15T04:54:19;13.25;;;9.15;;
64029;SDS011;50277;52.064;4.492;2024-02-15T04:56:44;13.43;;;8.60;;
64029;SDS011;50277;52.064;4.492;2024-02-15T04:59:10;17.13;;;9.50;;
64029;SDS011;50277;52.064;4.492;2024-02-15T05:01:39;15.90;;;10.85;;
64029;SDS011;50277;52.064;4.492;2024-02-15T05:04:07;22.80;;;11.18;;
64029;SDS011;50277;52.064;4.492;2024-02-15T05:06:33;16.67;;;11.88;;
64029;SDS011;50277;52.064;4.492;2024-02-15T05:08:59;17.30;;;12.02;;
64029;SDS011;50277;52.064;4.492;2024-02-15T05:11:32;19.50;;;12.23;;
64029;SDS011;50277;52.064;4.492;2024-02-15T05:14:00;19.48;;;11.38;;
64029;SDS011;50277;52.064;4.492;2024-02-15T05:16:26;17.48;;;12.20;;
64029;SDS011;50277;52.064;4.492;2024-02-15T05:18:51;19.75;;;10.98;;
64029;SDS011;50277;52.064;4.492;2024-02-15T05:21:18;25.27;;;12.80;;
64029;SDS011;50277;52.064;4.492;2024-02-15T05:23:44;21.02;;;11.25;;
64029;SDS011;50277;52.064;4.492;2024-02-15T05:26:10;17.30;;;10.63;;
64029;SDS011;50277;52.064;4.492;2024-02-15T05:28:37;19.38;;;11.30;;
64029;SDS011;50277;52.064;4.492;2024-02-15T05:33:37;16.38;;;10.27;;
64029;SDS011;50277;52.064;4.492;2024-02-15T05:36:08;23.50;;;11.18;;
64029;SDS011;50277;52.064;4.492;2024-02-15T05:38:37;25.17;;;10.52;;
64029;SDS011;50277;52.064;4.492;2024-02-15T05:41:02;19.63;;;10.52;;
64029;SDS011;50277;52.064;4.492;2024-02-15T05:43:28;26.05;;;11.30;;
64029;SDS011;50277;52.064;4.492;2024-02-15T05:45:53;16.60;;;9.88;;
64029;SDS011;50277;52.064;4.492;2024-02-15T05:48:19;16.95;;;9.32;;
64029;SDS011;50277;52.064;4.492;2024-02-15T05:50:45;19.08;;;9.32;;
64029;SDS011;50277;52.064;4.492;2024-02-15T05:53:11;16.40;;;9.70;;
64029;SDS011;50277;52.064;4.492;2024-02-15T05:55:36;22.35;;;10.23;;
64029;SDS011;50277;52.064;4.492;2024-02-15T05:58:05;21.23;;;9.68;;
64029;SDS011;50277;52.064;4.492;2024-02-15T06:00:33;13.07;;;7.90;;
64029;SDS011;50277;52.064;4.492;2024-02-15T06:02:59;17.92;;;9.25;;
64029;SDS011;50277;52.064;4.492;2024-02-15T06:05:26;16.02;;;8.77;;
64029;SDS011;50277;52.064;4.492;2024-02-15T06:07:52;11.60;;;8.13;;
64029;SDS011;50277;52.064;4.492;2024-02-15T06:10:17;13.15;;;7.93;;
64029;SDS011;50277;52.064;4.492;2024-02-15T06:12:43;18.73;;;8.27;;
64029;SDS011;50277;52.064;4.492;2024-02-15T06:15:09;13.45;;;7.65;;
64029;SDS011;50277;52.064;4.492;2024-02-15T06:17:39;12.50;;;7.85;;
64029;SDS011;50277;52.064;4.492;2024-02-15T06:20:06;9.35;;;6.60;;
64029;SDS011;50277;52.064;4.492;2024-02-15T06:22:32;11.80;;;7.03;;
64029;SDS011;50277;52.064;4.492;2024-02-15T06:24:58;8.15;;;6.40;;
64029;SDS011;50277;52.064;4.492;2024-02-15T06:27:23;10.25;;;6.32;;
64029;SDS011;50277;52.064;4.492;2024-02-15T06:29:49;9.48;;;6.13;;
64029;SDS011;50277;52.064;4.492;2024-02-15T06:32:33;7.05;;;5.75;;
64029;SDS011;50277;52.064;4.492;2024-02-15T06:35:17;8.18;;;6.40;;
64029;SDS011;50277;52.064;4.492;2024-02-15T06:38:01;9.27;;;5.70;;
64029;SDS011;50277;52.064;4.492;2024-02-15T06:40:45;7.72;;;5.93;;
64029;SDS011;50277;52.064;4.492;2024-02-15T06:43:11;8.02;;;6.30;;
64029;SDS011;50277;52.064;4.492;2024-02-15T06:45:37;9.68;;;6.32;;
64029;SDS011;50277;52.064;4.492;2024-02-15T06:48:03;7.72;;;5.65;;
64029;SDS011;50277;52.064;4.492;2024-02-15T06:50:28;8.13;;;6.40;;
64029;SDS011;50277;52.064;4.492;2024-02-15T06:52:55;8.45;;;6.57;;
64029;SDS011;50277;52.064;4.492;2024-02-15T06:55:20;8.45;;;6.80;;
64029;SDS011;50277;52.064;4.492;2024-02-15T06:57:47;8.63;;;7.43;;
64029;SDS011;50277;52.064;4.492;2024-02-15T07:00:13;8.95;;;7.00;;
64029;SDS011;50277;52.064;4.492;2024-02-15T07:02:40;8.30;;;7.35;;
64029;SDS011;50277;52.064;4.492;2024-02-15T07:05:06;8.93;;;7.10;;
64029;SDS011;50277;52.064;4.492;2024-02-15T07:07:32;9.35;;;7.28;;
64029;SDS011;50277;52.064;4.492;2024-02-15T07:09:57;9.13;;;6.85;;
64029;SDS011;50277;52.064;4.492;2024-02-15T07:12:23;10.20;;;8.05;;
64029;SDS011;50277;52.064;4.492;2024-02-15T07:14:48;11.00;;;8.23;;
64029;SDS011;50277;52.064;4.492;2024-02-15T07:17:14;11.57;;;7.80;;
64029;SDS011;50277;52.064;4.492;2024-02-15T07:19:45;10.38;;;9.27;;
64029;SDS011;50277;52.064;4.492;2024-02-15T07:22:14;9.48;;;7.72;;
64029;SDS011;50277;52.064;4.492;2024-02-15T07:24:42;10.48;;;8.70;;
64029;SDS011;50277;52.064;4.492;2024-02-15T07:27:08;11.15;;;8.88;;
64029;SDS011;50277;52.064;4.492;2024-02-15T07:29:34;15.88;;;8.75;;
64029;SDS011;50277;52.064;4.492;2024-02-15T07:32:02;9.68;;;8.45;;
64029;SDS011;50277;52.064;4.492;2024-02-15T07:34:31;11.40;;;9.00;;
64029;SDS011;50277;52.064;4.492;2024-02-15T07:36:57;14.23;;;10.40;;
64029;SDS011;50277;52.064;4.492;2024-02-15T07:39:23;12.82;;;9.57;;
64029;SDS011;50277;52.064;4.492;2024-02-15T07:41:50;14.20;;;9.82;;
64029;SDS011;50277;52.064;4.492;2024-02-15T07:44:16;12.93;;;8.88;;
64029;SDS011;50277;52.064;4.492;2024-02-15T07:46:42;12.15;;;9.85;;
64029;SDS011;50277;52.064;4.492;2024-02-15T07:49:08;13.85;;;9.70;;
64029;SDS011;50277;52.064;4.492;2024-02-15T07:51:33;14.10;;;9.02;;
64029;SDS011;50277;52.064;4.492;2024-02-15T07:53:58;11.93;;;8.73;;
64029;SDS011;50277;52.064;4.492;2024-02-15T07:56:24;14.27;;;9.95;;
64029;SDS011;50277;52.064;4.492;2024-02-15T07:58:50;14.38;;;8.25;;
64029;SDS011;50277;52.064;4.492;2024-02-15T08:01:17;13.23;;;7.80;;
64029;SDS011;50277;52.064;4.492;2024-02-15T08:03:42;11.95;;;7.75;;
64029;SDS011;50277;52.064;4.492;2024-02-15T08:06:13;13.77;;;7.53;;
64029;SDS011;50277;52.064;4.492;2024-02-15T08:08:40;12.00;;;8.27;;
64029;SDS011;50277;52.064;4.492;2024-02-15T08:11:06;12.50;;;7.63;;
64029;SDS011;50277;52.064;4.492;2024-02-15T08:13:44;11.70;;;8.02;;
64029;SDS011;50277;52.064;4.492;2024-02-15T08:16:10;13.95;;;7.95;;
64029;SDS011;50277;52.064;4.492;2024-02-15T08:18:37;11.55;;;8.27;;
64029;SDS011;50277;52.064;4.492;2024-02-15T08:21:03;11.45;;;8.10;;
64029;SDS011;50277;52.064;4.492;2024-02-15T08:23:29;11.85;;;7.47;;
64029;SDS011;50277;52.064;4.492;2024-02-15T08:25:54;13.23;;;7.15;;
64029;SDS011;50277;52.064;4.492;2024-02-15T08:28:20;15.35;;;8.43;;
64029;SDS011;50277;52.064;4.492;2024-02-15T08:30:45;10.65;;;6.93;;
64029;SDS011;50277;52.064;4.492;2024-02-15T08:33:11;13.23;;;6.90;;
64029;SDS011;50277;52.064;4.492;2024-02-15T08:35:37;10.52;;;6.97;;
64029;SDS011;50277;52.064;4.492;2024-02-15T08:38:05;9.20;;;7.10;;
64029;SDS011;50277;52.064;4.492;2024-02-15T08:40:31;12.98;;;7.07;;
64029;SDS011;50277;52.064;4.492;2024-02-15T08:42:56;12.93;;;7.75;;
64029;SDS011;50277;52.064;4.492;2024-02-15T08:45:21;12.40;;;7.40;;
64029;SDS011;50277;52.064;4.492;2024-02-15T08:47:48;11.10;;;6.90;;
64029;SDS011;50277;52.064;4.492;2024-02-15T08:50:17;13.73;;;7.88;;
64029;SDS011;50277;52.064;4.492;2024-02-15T08:52:43;15.60;;;7.95;;
64029;SDS011;50277;52.064;4.492;2024-02-15T08:55:09;9.63;;;6.72;;
64029;SDS011;50277;52.064;4.492;2024-02-15T08:57:35;13.02;;;7.88;;
64029;SDS011;50277;52.064;4.492;2024-02-15T09:00:02;14.10;;;7.85;;
64029;SDS011;50277;52.064;4.492;2024-02-15T09:02:30;10.80;;;6.72;;
64029;SDS011;50277;52.064;4.492;2024-02-15T09:04:57;15.60;;;7.80;;
64029;SDS011;50277;52.064;4.492;2024-02-15T09:07:24;17.02;;;7.72;;
64029;SDS011;50277;52.064;4.492;2024-02-15T09:09:49;14.40;;;7.65;;
64029;SDS011;50277;52.064;4.492;2024-02-15T09:12:14;17.00;;;7.38;;
64029;SDS011;50277;52.064;4.492;2024-02-15T09:14:40;10.38;;;6.30;;
64029;SDS011;50277;52.064;4.492;2024-02-15T09:17:05;13.88;;;6.65;;
64029;SDS011;50277;52.064;4.492;2024-02-15T09:19:33;13.68;;;5.95;;
64029;SDS011;50277;52.064;4.492;2024-02-15T09:21:59;15.50;;;6.88;;
64029;SDS011;50277;52.064;4.492;2024-02-15T09:24:25;13.00;;;5.65;;
64029;SDS011;50277;52.064;4.492;2024-02-15T09:26:50;15.13;;;5.72;;
64029;SDS011;50277;52.064;4.492;2024-02-15T09:29:17;12.60;;;6.43;;
64029;SDS011;50277;52.064;4.492;2024-02-15T09:31:44;15.20;;;6.03;;
64029;SDS011;50277;52.064;4.492;2024-02-15T09:34:12;7.07;;;5.18;;
64029;SDS011;50277;52.064;4.492;2024-02-15T09:36:38;14.23;;;6.68;;
64029;SDS011;50277;52.064;4.492;2024-02-15T09:39:03;13.68;;;6.10;;
64029;SDS011;50277;52.064;4.492;2024-02-15T09:41:29;17.23;;;7.15;;
64029;SDS011;50277;52.064;4.492;2024-02-15T09:43:55;12.20;;;6.35;;
64029;SDS011;50277;52.064;4.492;2024-02-15T09:46:20;14.88;;;6.03;;
64029;SDS011;50277;52.064;4.492;2024-02-15T09:48:47;14.95;;;6.97;;
64029;SDS011;50277;52.064;4.492;2024-02-15T09:51:15;15.25;;;6.28;;
64029;SDS011;50277;52.064;4.492;2024-02-15T09:53:42;14.95;;;6.75;;
64029;SDS011;50277;52.064;4.492;2024-02-15T09:56:08;17.52;;;7.47;;
64029;SDS011;50277;52.064;4.492;2024-02-15T09:58:33;13.20;;;6.50;;
64029;SDS011;50277;52.064;4.492;2024-02-15T10:01:01;15.82;;;6.90;;
64029;SDS011;50277;52.064;4.492;2024-02-15T10:03:34;12.95;;;6.28;;
64029;SDS011;50277;52.064;4.492;2024-02-15T10:06:05;10.88;;;5.97;;
64029;SDS011;50277;52.064;4.492;2024-02-15T10:08:31;15.55;;;6.03;;
64029;SDS011;50277;52.064;4.492;2024-02-15T10:11:08;12.63;;;6.25;;
64029;SDS011;50277;52.064;4.492;2024-02-15T10:13:34;13.20;;;6.20;;
64029;SDS011;50277;52.064;4.492;2024-02-15T10:16:05;16.15;;;6.45;;
64029;SDS011;50277;52.064;4.492;2024-02-15T10:18:42;11.15;;;5.68;;
64029;SDS011;50277;52.064;4.492;2024-02-15T10:21:07;11.27;;;5.93;;
64029;SDS011;50277;52.064;4.492;2024-02-15T10:23:33;11.93;;;6.07;;
64029;SDS011;50277;52.064;4.492;2024-02-15T10:25:59;9.32;;;6.13;;
64029;SDS011;50277;52.064;4.492;2024-02-15T10:28:26;17.70;;;6.50;;
64029;SDS011;50277;52.064;4.492;2024-02-15T10:30:53;12.25;;;6.50;;
64029;SDS011;50277;52.064;4.492;2024-02-15T10:33:19;13.10;;;6.28;;
64029;SDS011;50277;52.064;4.492;2024-02-15T10:35:45;14.25;;;6.63;;
64029;SDS011;50277;52.064;4.492;2024-02-15T10:38:11;11.43;;;5.85;;
64029;SDS011;50277;52.064;4.492;2024-02-15T10:40:38;12.77;;;6.78;;
64029;SDS011;50277;52.064;4.492;2024-02-15T10:43:06;12.55;;;6.40;;
64029;SDS011;50277;52.064;4.492;2024-02-15T10:45:32;11.43;;;6.53;;
64029;SDS011;50277;52.064;4.492;2024-02-15T10:48:01;15.88;;;6.55;;
64029;SDS011;50277;52.064;4.492;2024-02-15T10:50:29;16.20;;;6.65;;
64029;SDS011;50277;52.064;4.492;2024-02-15T10:52:55;12.80;;;5.45;;
64029;SDS011;50277;52.064;4.492;2024-02-15T10:55:26;13.40;;;5.68;;
64029;SDS011;50277;52.064;4.492;2024-02-15T11:00:28;9.88;;;4.63;;
64029;SDS011;50277;52.064;4.492;2024-02-15T11:03:00;14.80;;;5.63;;
64029;SDS011;50277;52.064;4.492;2024-02-15T11:05:28;8.50;;;4.55;;
64029;SDS011;50277;52.064;4.492;2024-02-15T11:10:21;10.77;;;4.57;;
64029;SDS011;50277;52.064;4.492;2024-02-15T11:12:46;14.50;;;4.90;;
64029;SDS011;50277;52.064;4.492;2024-02-15T11:15:12;11.65;;;4.43;;
64029;SDS011;50277;52.064;4.492;2024-02-15T11:18:00;8.10;;;4.22;;
64029;SDS011;50277;52.064;4.492;2024-02-15T11:23:00;8.30;;;3.88;;
64029;SDS011;50277;52.064;4.492;2024-02-15T11:25:35;8.57;;;4.10;;
64029;SDS011;50277;52.064;4.492;2024-02-15T11:30:45;9.02;;;4.95;;
64029;SDS011;50277;52.064;4.492;2024-02-15T11:36:07;7.70;;;4.53;;
64029;SDS011;50277;52.064;4.492;2024-02-15T11:38:39;8.15;;;5.57;;
64029;SDS011;50277;52.064;4.492;2024-02-15T11:41:06;7.00;;;4.75;;
64029;SDS011;50277;52.064;4.492;2024-02-15T11:48:48;8.85;;;5.35;;
64029;SDS011;50277;52.064;4.492;2024-02-15T11:54:05;8.98;;;5.07;;
64029;SDS011;50277;52.064;4.492;2024-02-15T11:56:53;10.43;;;5.63;;
64029;SDS011;50277;52.064;4.492;2024-02-15T11:59:42;7.50;;;5.25;;
64029;SDS011;50277;52.064;4.492;2024-02-15T12:02:26;6.30;;;4.25;;
64029;SDS011;50277;52.064;4.492;2024-02-15T12:05:10;10.57;;;5.03;;
64029;SDS011;50277;52.064;4.492;2024-02-15T12:07:55;8.75;;;4.50;;
64029;SDS011;50277;52.064;4.492;2024-02-15T12:10:39;6.13;;;3.90;;
64029;SDS011;50277;52.064;4.492;2024-02-15T12:13:23;8.75;;;4.13;;
64029;SDS011;50277;52.064;4.492;2024-02-15T12:16:07;7.93;;;4.07;;
64029;SDS011;50277;52.064;4.492;2024-02-15T12:18:51;5.43;;;3.50;;
64029;SDS011;50277;52.064;4.492;2024-02-15T12:21:23;6.50;;;3.23;;
64029;SDS011;50277;52.064;4.492;2024-02-15T12:23:50;7.82;;;4.22;;
64029;SDS011;50277;52.064;4.492;2024-02-15T12:26:20;4.38;;;3.15;;
64029;SDS011;50277;52.064;4.492;2024-02-15T12:28:54;7.88;;;3.70;;
64029;SDS011;50277;52.064;4.492;2024-02-15T12:31:21;6.00;;;3.03;;
64029;SDS011;50277;52.064;4.492;2024-02-15T12:33:46;8.43;;;3.65;;
64029;SDS011;50277;52.064;4.492;2024-02-15T12:36:13;8.65;;;3.10;;
64029;SDS011;50277;52.064;4.492;2024-02-15T12:38:39;6.65;;;3.13;;
64029;SDS011;50277;52.064;4.492;2024-02-15T12:41:21;4.00;;;2.67;;
64029;SDS011;50277;52.064;4.492;2024-02-15T12:43:51;5.82;;;2.38;;
64029;SDS011;50277;52.064;4.492;2024-02-15T12:46:18;6.60;;;2.90;;
64029;SDS011;50277;52.064;4.492;2024-02-15T12:48:44;7.80;;;3.00;;
64029;SDS011;50277;52.064;4.492;2024-02-15T12:51:16;4.72;;;2.92;;
64029;SDS011;50277;52.064;4.492;2024-02-15T12:53:42;5.25;;;2.70;;
64029;SDS011;50277;52.064;4.492;2024-02-15T12:56:07;5.82;;;2.55;;
64029;SDS011;50277;52.064;4.492;2024-02-15T12:58:34;4.82;;;2.35;;
64029;SDS011;50277;52.064;4.492;2024-02-15T13:01:00;3.88;;;2.25;;
64029;SDS011;50277;52.064;4.492;2024-02-15T13:03:26;5.80;;;2.30;;
64029;SDS011;50277;52.064;4.492;2024-02-15T13:05:51;4.63;;;2.35;;
64029;SDS011;50277;52.064;4.492;2024-02-15T13:08:17;5.57;;;2.20;;
64029;SDS011;50277;52.064;4.492;2024-02-15T13:10:43;6.32;;;2.30;;
64029;SDS011;50277;52.064;4.492;2024-02-15T13:13:09;9.07;;;2.38;;
64029;SDS011;50277;52.064;4.492;2024-02-15T13:15:34;4.85;;;2.35;;
64029;SDS011;50277;52.064;4.492;2024-02-15T13:18:01;6.50;;;2.53;;
64029;SDS011;50277;52.064;4.492;2024-02-15T13:20:29;4.10;;;2.15;;
64029;SDS011;50277;52.064;4.492;2024-02-15T13:23:01;2.70;;;2.00;;
64029;SDS011;50277;52.064;4.492;2024-02-15T13:25:33;4.07;;;2.25;;
64029;SDS011;50277;52.064;4.492;2024-02-15T13:27:58;7.28;;;2.40;;
64029;SDS011;50277;52.064;4.492;2024-02-15T13:30:24;7.70;;;2.22;;
64029;SDS011;50277;52.064;4.492;2024-02-15T13:32:52;3.35;;;2.10;;
64029;SDS011;50277;52.064;4.492;2024-02-15T13:35:19;2.67;;;1.85;;
64029;SDS011;50277;52.064;4.492;2024-02-15T13:37:52;5.25;;;2.10;;
64029;SDS011;50277;52.064;4.492;2024-02-15T13:40:19;4.53;;;2.42;;
64029;SDS011;50277;52.064;4.492;2024-02-15T13:42:48;5.95;;;2.25;;
64029;SDS011;50277;52.064;4.492;2024-02-15T13:45:42;6.10;;;2.72;;
64029;SDS011;50277;52.064;4.492;2024-02-15T13:48:09;5.55;;;2.50;;
64029;SDS011;50277;52.064;4.492;2024-02-15T13:50:36;4.68;;;2.40;;
64029;SDS011;50277;52.064;4.492;2024-02-15T13:53:01;7.65;;;2.90;;
64029;SDS011;50277;52.064;4.492;2024-02-15T13:55:28;7.13;;;2.88;;
64029;SDS011;50277;52.064;4.492;2024-02-15T13:57:54;3.80;;;2.38;;
64029;SDS011;50277;52.064;4.492;2024-02-15T14:00:23;6.05;;;2.85;;
64029;SDS011;50277;52.064;4.492;2024-02-15T14:02:58;3.80;;;2.38;;
64029;SDS011;50277;52.064;4.492;2024-02-15T14:05:25;6.28;;;2.50;;
64029;SDS011;50277;52.064;4.492;2024-02-15T14:07:57;5.07;;;2.63;;
64029;SDS011;50277;52.064;4.492;2024-02-15T14:10:24;9.70;;;3.10;;
64029;SDS011;50277;52.064;4.492;2024-02-15T14:12:51;4.60;;;2.33;;
64029;SDS011;50277;52.064;4.492;2024-02-15T14:15:18;6.47;;;2.72;;
64029;SDS011;50277;52.064;4.492;2024-02-15T14:17:44;8.27;;;3.10;;
64029;SDS011;50277;52.064;4.492;2024-02-15T14:20:10;6.53;;;2.80;;
64029;SDS011;50277;52.064;4.492;2024-02-15T14:22:40;6.30;;;2.90;;
64029;SDS011;50277;52.064;4.492;2024-02-15T14:25:07;4.68;;;2.72;;
64029;SDS011;50277;52.064;4.492;2024-02-15T14:27:33;5.55;;;3.00;;
64029;SDS011;50277;52.064;4.492;2024-02-15T14:29:58;5.97;;;2.67;;
64029;SDS011;50277;52.064;4.492;2024-02-15T14:32:42;8.15;;;2.83;;
64029;SDS011;50277;52.064;4.492;2024-02-15T14:35:27;6.32;;;3.15;;
64029;SDS011;50277;52.064;4.492;2024-02-15T14:37:54;5.43;;;2.80;;
64029;SDS011;50277;52.064;4.492;2024-02-15T14:40:23;8.73;;;3.20;;
64029;SDS011;50277;52.064;4.492;2024-02-15T14:42:48;9.32;;;3.42;;
64029;SDS011;50277;52.064;4.492;2024-02-15T14:45:13;7.10;;;2.83;;
64029;SDS011;50277;52.064;4.492;2024-02-15T14:47:39;6.63;;;3.13;;
64029;SDS011;50277;52.064;4.492;2024-02-15T14:50:04;6.65;;;2.67;;
64029;SDS011;50277;52.064;4.492;2024-02-15T14:52:34;5.10;;;3.00;;
64029;SDS011;50277;52.064;4.492;2024-02-15T14:55:05;5.85;;;3.20;;
64029;SDS011;50277;52.064;4.492;2024-02-15T14:57:32;6.55;;;3.10;;
64029;SDS011;50277;52.064;4.492;2024-02-15T15:00:04;7.97;;;2.88;;
64029;SDS011;50277;52.064;4.492;2024-02-15T15:02:36;12.32;;;3.47;;
64029;SDS011;50277;52.064;4.492;2024-02-15T15:05:02;13.75;;;3.35;;
64029;SDS011;50277;52.064;4.492;2024-02-15T15:07:46;4.72;;;2.63;;